Time,TemperatureF,DewpointF,PressureIn,WindDirection,WindDirectionDegrees,WindSpeedMPH,WindSpeedGustMPH,Humidity,HourlyPrecipIn,Conditions,Clouds,dailyrainin,SoftwareType,DateUTC
2013-04-02 00:02:00,67.0,-99.9,30.03,ENE,72,9.0,11.0,-999,-99.99,,,-99.99,,2013-04-02 05:02:00,
2013-04-02 00:12:00,66.0,-99.9,30.04,ENE,65,7.0,8.0,-999,-99.99,,,-99.99,,2013-04-02 05:12:00,
2013-04-02 00:23:00,66.0,-99.9,30.04,ENE,70,6.0,7.0,-999,-99.99,,,-99.99,,2013-04-02 05:23:00,
2013-04-02 00:33:00,66.0,-99.9,30.04,ENE,76,7.0,9.0,-999,-99.99,,,-99.99,,2013-04-02 05:33:00,
2013-04-02 00:43:00,66.0,-99.9,30.04,ENE,75,8.0,8.0,-999,-99.99,,,-99.99,,2013-04-02 05:43:00,
2013-04-02 00:52:00,66.0,-99.9,30.04,East,79,7.0,7.0,-999,-99.99,,,-99.99,,2013-04-02 05:52:00,
2013-04-02 01:03:00,66.0,-99.9,30.04,East,91,6.0,7.0,-999,-99.99,,,-99.99,,2013-04-02 06:03:00,
2013-04-02 01:12:00,66.0,-99.9,30.04,East,91,6.0,7.0,-999,-99.99,,,-99.99,,2013-04-02 06:12:00,
2013-04-02 01:22:00,66.0,-99.9,30.05,East,101,6.0,6.0,-999,-99.99,,,-99.99,,2013-04-02 06:22:00,
2013-04-02 01:32:00,66.0,-99.9,30.05,ESE,115,5.0,5.0,-999,-99.99,,,-99.99,,2013-04-02 06:32:00,
2013-04-02 01:42:00,67.0,-99.9,30.05,ESE,123,5.0,5.0,-999,-99.99,,,-99.99,,2013-04-02 06:42:00,
2013-04-02 01:52:00,66.0,-99.9,30.05,SE,125,4.0,4.0,-999,-99.99,,,-99.99,,2013-04-02 06:52:00,
2013-04-02 02:02:00,66.0,-99.9,30.05,ESE,121,4.0,4.0,-999,-99.99,,,-99.99,,2013-04-02 07:02:00,
2013-04-02 02:13:00,65.0,-99.9,30.05,SW,229,2.0,2.0,-999,-99.99,,,-99.99,,2013-04-02 07:13:00,
2013-04-02 02:22:00,65.0,-99.9,30.05,SW,229,0.0,2.0,-999,-99.99,,,-99.99,,2013-04-02 07:22:00,
2013-04-02 02:32:00,65.0,-99.9,30.05,West,279,2.0,3.0,-999,-99.99,,,-99.99,,2013-04-02 07:32:00,
2013-04-02 02:43:00,65.0,-99.9,30.05,West,279,2.0,3.0,-999,-99.99,,,-99.99,,2013-04-02 07:43:00,
2013-04-02 02:53:00,64.0,-99.9,30.05,WNW,300,3.0,3.0,-999,-99.99,,,-99.99,,2013-04-02 07:53:00,
2013-04-02 03:02:00,64.0,-99.9,30.05,WNW,302,3.0,3.0,-999,-99.99,,,-99.99,,2013-04-02 08:02:00,
2013-04-02 03:14:00,64.0,-99.9,30.04,NW,322,5.0,5.0,-999,-99.99,,,-99.99,,2013-04-02 08:14:00,
2013-04-02 03:23:00,64.0,-99.9,30.04,NNW,328,5.0,5.0,-999,-99.99,,,-99.99,,2013-04-02 08:23:00,
2013-04-02 03:32:00,64.0,-99.9,30.04,NNW,340,4.0,5.0,-999,-99.99,,,-99.99,,2013-04-02 08:32:00,
2013-04-02 03:43:00,64.0,-99.9,30.04,NNW,338,6.0,6.0,-999,-99.99,,,-99.99,,2013-04-02 08:43:00,
2013-04-02 03:52:00,64.0,-99.9,30.04,NNW,343,6.0,7.0,-999,-99.99,,,-99.99,,2013-04-02 08:52:00,
2013-04-02 04:02:00,64.0,-99.9,30.05,NNW,334,6.0,6.0,-999,-99.99,,,-99.99,,2013-04-02 09:02:00,
2013-04-02 04:13:00,64.0,-99.9,30.04,NNW,342,6.0,6.0,-999,-99.99,,,-99.99,,2013-04-02 09:13:00,
2013-04-02 04:22:00,64.0,-99.9,30.04,North,353,6.0,8.0,-999,-99.99,,,-99.99,,2013-04-02 09:22:00,
2013-04-02 04:33:00,63.0,-99.9,30.04,North,351,7.0,8.0,-999,-99.99,,,-99.99,,2013-04-02 09:33:00,
2013-04-02 04:43:00,64.0,-99.9,30.04,North,352,6.0,7.0,-999,-99.99,,,-99.99,,2013-04-02 09:43:00,
2013-04-02 04:53:00,64.0,-99.9,30.04,North,7,6.0,7.0,-999,-99.99,,,-99.99,,2013-04-02 09:53:00,
2013-04-02 05:04:00,64.0,-99.9,30.04,North,11,7.0,7.0,-999,-99.99,,,-99.99,,2013-04-02 10:04:00,
2013-04-02 05:13:00,64.0,-99.9,30.04,NNE,30,6.0,7.0,-999,-99.99,,,-99.99,,2013-04-02 10:13:00,
2013-04-02 05:24:00,64.0,-99.9,30.04,NE,39,6.0,7.0,-999,-99.99,,,-99.99,,2013-04-02 10:24:00,
2013-04-02 05:33:00,63.0,-99.9,30.04,NE,42,6.0,6.0,-999,-99.99,,,-99.99,,2013-04-02 10:33:00,
2013-04-02 05:43:00,63.0,-99.9,30.04,NE,43,5.0,6.0,-999,-99.99,,,-99.99,,2013-04-02 10:43:00,
2013-04-02 05:53:00,63.0,-99.9,30.04,NE,46,7.0,7.0,-999,-99.99,,,-99.99,,2013-04-02 10:53:00,
2013-04-02 06:03:00,63.0,-99.9,30.05,NE,48,7.0,8.0,-999,-99.99,,,-99.99,,2013-04-02 11:03:00,
2013-04-02 06:12:00,63.0,-99.9,30.05,NE,47,7.0,8.0,-999,-99.99,,,-99.99,,2013-04-02 11:12:00,
2013-04-02 06:23:00,62.0,-99.9,30.05,NE,52,8.0,9.0,-999,-99.99,,,-99.99,,2013-04-02 11:23:00,
2013-04-02 06:33:00,63.0,-99.9,30.05,NE,51,9.0,9.0,-999,-99.99,,,-99.99,,2013-04-02 11:33:00,
2013-04-02 06:43:00,63.0,-99.9,30.05,NE,49,8.0,9.0,-999,-99.99,,,-99.99,,2013-04-02 11:43:00,
2013-04-02 06:53:00,62.0,-99.9,30.05,NE,52,10.0,11.0,-999,-99.99,,,-99.99,,2013-04-02 11:53:00,
2013-04-02 07:02:00,62.0,-99.9,30.05,NE,47,9.0,11.0,-999,-99.99,,,-99.99,,2013-04-02 12:02:00,
2013-04-02 07:12:00,62.0,-99.9,30.06,NE,50,8.0,9.0,-999,-99.99,,,-99.99,,2013-04-02 12:12:00,
2013-04-02 07:23:00,63.0,-99.9,30.06,NE,46,8.0,9.0,-999,-99.99,,,-99.99,,2013-04-02 12:23:00,
2013-04-02 07:32:00,63.0,-99.9,30.07,NE,50,7.0,9.0,-999,-99.99,,,-99.99,,2013-04-02 12:32:00,
2013-04-02 07:43:00,63.0,-99.9,30.07,NE,54,8.0,8.0,-999,-99.99,,,-99.99,,2013-04-02 12:43:00,
2013-04-02 07:53:00,63.0,-99.9,30.08,NE,48,7.0,8.0,-999,-99.99,,,-99.99,,2013-04-02 12:53:00,
2013-04-02 08:02:00,63.0,-99.9,30.09,NE,44,8.0,9.0,-999,-99.99,,,-99.99,,2013-04-02 13:02:00,
2013-04-02 08:12:00,63.0,-99.9,30.09,NE,42,9.0,9.0,-999,-99.99,,,-99.99,,2013-04-02 13:12:00,
2013-04-02 08:23:00,63.0,-99.9,30.09,NE,46,8.0,9.0,-999,-99.99,,,-99.99,,2013-04-02 13:23:00,
2013-04-02 08:33:00,63.0,-99.9,30.09,NE,41,8.0,9.0,-999,-99.99,,,-99.99,,2013-04-02 13:33:00,
2013-04-02 08:42:00,64.0,-99.9,30.10,NE,39,7.0,7.0,-999,-99.99,,,-99.99,,2013-04-02 13:42:00,
2013-04-02 08:52:00,63.0,-99.9,30.10,NE,37,7.0,8.0,-999,-99.99,,,-99.99,,2013-04-02 13:52:00,
2013-04-02 09:02:00,63.0,-99.9,30.10,NE,35,8.0,8.0,-999,-99.99,,,-99.99,,2013-04-02 14:02:00,
2013-04-02 09:13:00,64.0,-99.9,30.11,NNE,33,7.0,9.0,-999,-99.99,,,-99.99,,2013-04-02 14:13:00,
2013-04-02 09:23:00,64.0,-99.9,30.11,NE,39,7.0,8.0,-999,-99.99,,,-99.99,,2013-04-02 14:23:00,
2013-04-02 09:33:00,64.0,-99.9,30.12,NE,35,8.0,9.0,-999,-99.99,,,-99.99,,2013-04-02 14:33:00,
2013-04-02 09:43:00,64.0,-99.9,30.12,NE,40,8.0,9.0,-999,-99.99,,,-99.99,,2013-04-02 14:43:00,
2013-04-02 09:52:00,64.0,-99.9,30.12,NE,43,9.0,10.0,-999,-99.99,,,-99.99,,2013-04-02 14:52:00,
2013-04-02 10:02:00,64.0,-99.9,30.12,NE,42,9.0,10.0,-999,-99.99,,,-99.99,,2013-04-02 15:02:00,
2013-04-02 10:12:00,65.0,-99.9,30.12,NE,42,6.0,8.0,-999,-99.99,,,-99.99,,2013-04-02 15:12:00,
2013-04-02 10:23:00,65.0,-99.9,30.12,NE,54,8.0,9.0,-999,-99.99,,,-99.99,,2013-04-02 15:23:00,
2013-04-02 10:33:00,65.0,-99.9,30.12,ENE,58,8.0,10.0,-999,-99.99,,,-99.99,,2013-04-02 15:33:00,
2013-04-02 10:43:00,65.0,-99.9,30.12,ENE,73,7.0,10.0,-999,-99.99,,,-99.99,,2013-04-02 15:43:00,
2013-04-02 10:58:00,68.0,-99.9,30.12,ESE,119,9.0,12.0,-999,-99.99,,,-99.99,,2013-04-02 15:58:00,
2013-04-02 11:04:00,67.0,-99.9,30.12,ESE,109,10.0,13.0,-999,-99.99,,,-99.99,,2013-04-02 16:04:00,
2013-04-02 11:14:00,67.0,-99.9,30.11,ESE,111,14.0,18.0,-999,-99.99,,,-99.99,,2013-04-02 16:14:00,
2013-04-02 11:25:00,68.0,-99.9,30.12,ESE,116,14.0,19.0,-999,-99.99,,,-99.99,,2013-04-02 16:25:00,
2013-04-02 11:39:00,67.0,-99.9,30.12,ESE,116,15.0,17.0,-999,-99.99,,,-99.99,,2013-04-02 16:39:00,
2013-04-02 11:54:00,67.0,-99.9,30.12,SE,124,13.0,15.0,-999,-99.99,,,-99.99,,2013-04-02 16:54:00,
2013-04-02 12:06:00,67.0,-99.9,30.11,SE,125,14.0,15.0,-999,-99.99,,,-99.99,,2013-04-02 17:06:00,
2013-04-02 12:14:00,67.0,-99.9,30.11,SE,133,14.0,15.0,-999,-99.99,,,-99.99,,2013-04-02 17:14:00,
2013-04-02 12:25:00,68.0,-99.9,30.11,SE,130,13.0,15.0,-999,-99.99,,,-99.99,,2013-04-02 17:25:00,
2013-04-02 12:35:00,69.0,-99.9,30.11,SE,132,12.0,15.0,-999,-99.99,,,-99.99,,2013-04-02 17:35:00,
2013-04-02 12:44:00,69.0,-99.9,30.11,SE,130,14.0,16.0,-999,-99.99,,,-99.99,,2013-04-02 17:44:00,
2013-04-02 12:57:00,69.0,-99.9,30.10,ESE,123,14.0,17.0,-999,-99.99,,,-99.99,,2013-04-02 17:57:00,
2013-04-02 13:05:00,68.0,-99.9,30.10,SE,126,14.0,16.0,-999,-99.99,,,-99.99,,2013-04-02 18:05:00,
2013-04-02 13:13:00,69.0,-99.9,30.09,ESE,122,13.0,17.0,-999,-99.99,,,-99.99,,2013-04-02 18:13:00,
2013-04-02 13:23:00,69.0,-99.9,30.09,ESE,119,13.0,16.0,-999,-99.99,,,-99.99,,2013-04-02 18:23:00,
2013-04-02 13:35:00,68.0,-99.9,30.09,ESE,119,15.0,17.0,-999,-99.99,,,-99.99,,2013-04-02 18:35:00,
2013-04-02 13:43:00,68.0,-99.9,30.08,ESE,116,14.0,17.0,-999,-99.99,,,-99.99,,2013-04-02 18:43:00,
2013-04-02 13:57:00,69.0,-99.9,30.08,SE,124,13.0,15.0,-999,-99.99,,,-99.99,,2013-04-02 18:57:00,
2013-04-02 14:03:00,68.0,-99.9,30.09,SE,129,12.0,14.0,-999,-99.99,,,-99.99,,2013-04-02 19:03:00,
2013-04-02 14:13:00,69.0,-99.9,30.08,SE,128,11.0,14.0,-999,-99.99,,,-99.99,,2013-04-02 19:13:00,
2013-04-02 14:23:00,70.0,-99.9,30.08,SE,138,10.0,13.0,-999,-99.99,,,-99.99,,2013-04-02 19:23:00,
2013-04-02 14:34:00,68.0,-99.9,30.07,SE,126,11.0,13.0,-999,-99.99,,,-99.99,,2013-04-02 19:34:00,
2013-04-02 14:47:00,69.0,-99.9,30.07,SE,125,11.0,14.0,-999,-99.99,,,-99.99,,2013-04-02 19:47:00,
2013-04-02 14:57:00,69.0,-99.9,30.07,SE,126,10.0,13.0,-999,-99.99,,,-99.99,,2013-04-02 19:57:00,
2013-04-02 15:04:00,68.0,-99.9,30.06,SE,124,11.0,15.0,-999,-99.99,,,-99.99,,2013-04-02 20:04:00,
2013-04-02 15:14:00,69.0,-99.9,30.06,ESE,122,10.0,12.0,-999,-99.99,,,-99.99,,2013-04-02 20:14:00,
2013-04-02 15:23:00,69.0,-99.9,30.06,SE,125,9.0,11.0,-999,-99.99,,,-99.99,,2013-04-02 20:23:00,
2013-04-02 15:34:00,69.0,-99.9,30.05,SE,128,9.0,11.0,-999,-99.99,,,-99.99,,2013-04-02 20:34:00,
2013-04-02 15:44:00,69.0,-99.9,30.05,SE,125,9.0,11.0,-999,-99.99,,,-99.99,,2013-04-02 20:44:00,
2013-04-02 15:55:00,69.0,-99.9,30.04,SE,125,10.0,12.0,-999,-99.99,,,-99.99,,2013-04-02 20:55:00,
2013-04-02 16:05:00,69.0,-99.9,30.04,ESE,118,9.0,11.0,-999,-99.99,,,-99.99,,2013-04-02 21:05:00,
2013-04-02 16:13:00,69.0,-99.9,30.04,SE,128,9.0,11.0,-999,-99.99,,,-99.99,,2013-04-02 21:13:00,
2013-04-02 16:23:00,69.0,-99.9,30.04,SE,132,9.0,12.0,-999,-99.99,,,-99.99,,2013-04-02 21:23:00,
2013-04-02 16:35:00,68.0,-99.9,30.03,SE,130,10.0,13.0,-999,-99.99,,,-99.99,,2013-04-02 21:35:00,
2013-04-02 16:44:00,69.0,-99.9,30.03,ESE,123,9.0,11.0,-999,-99.99,,,-99.99,,2013-04-02 21:44:00,
2013-04-02 16:57:00,69.0,-99.9,30.03,SE,125,8.0,10.0,-999,-99.99,,,-99.99,,2013-04-02 21:57:00,
2013-04-02 17:05:00,69.0,-99.9,30.03,SE,126,9.0,12.0,-999,-99.99,,,-99.99,,2013-04-02 22:05:00,
2013-04-02 17:14:00,69.0,-99.9,30.03,SE,125,8.0,10.0,-999,-99.99,,,-99.99,,2013-04-02 22:14:00,
2013-04-02 17:25:00,69.0,-99.9,30.02,SE,131,9.0,11.0,-999,-99.99,,,-99.99,,2013-04-02 22:25:00,
2013-04-02 17:34:00,69.0,-99.9,30.02,SE,130,10.0,12.0,-999,-99.99,,,-99.99,,2013-04-02 22:34:00,
2013-04-02 17:44:00,68.0,-99.9,30.02,ESE,122,11.0,12.0,-999,-99.99,,,-99.99,,2013-04-02 22:44:00,
2013-04-02 17:54:00,68.0,-99.9,30.02,SE,124,12.0,13.0,-999,-99.99,,,-99.99,,2013-04-02 22:54:00,
2013-04-02 18:03:00,68.0,-99.9,30.02,SE,124,11.0,13.0,-999,-99.99,,,-99.99,,2013-04-02 23:03:00,
2013-04-02 18:13:00,68.0,-99.9,30.02,SE,128,12.0,13.0,-999,-99.99,,,-99.99,,2013-04-02 23:13:00,
2013-04-02 18:24:00,68.0,-99.9,30.02,SE,125,11.0,13.0,-999,-99.99,,,-99.99,,2013-04-02 23:24:00,
2013-04-02 18:37:00,68.0,-99.9,30.02,SE,125,12.0,13.0,-999,-99.99,,,-99.99,,2013-04-02 23:37:00,
2013-04-02 18:43:00,68.0,-99.9,30.02,SE,128,12.0,13.0,-999,-99.99,,,-99.99,,2013-04-02 23:43:00,
2013-04-02 18:55:00,68.0,-99.9,30.02,SE,126,12.0,14.0,-999,-99.99,,,-99.99,,2013-04-02 23:55:00,
2013-04-02 19:05:00,68.0,-99.9,30.02,SE,124,13.0,14.0,-999,-99.99,,,-99.99,,2013-04-03 00:05:00,
2013-04-02 19:13:00,68.0,-99.9,30.01,ESE,120,14.0,15.0,-999,-99.99,,,-99.99,,2013-04-03 00:13:00,
2013-04-02 19:26:00,67.0,-99.9,30.03,SE,124,14.0,16.0,-999,-99.99,,,-99.99,,2013-04-03 00:26:00,
2013-04-02 19:34:00,67.0,-99.9,30.03,ESE,121,15.0,16.0,-999,-99.99,,,-99.99,,2013-04-03 00:34:00,
2013-04-02 19:48:00,68.0,-99.9,30.03,ESE,122,14.0,15.0,-999,-99.99,,,-99.99,,2013-04-03 00:48:00,
2013-04-02 19:57:00,68.0,-99.9,30.02,ESE,113,11.0,13.0,-999,-99.99,,,-99.99,,2013-04-03 00:57:00,
2013-04-02 20:04:00,68.0,-99.9,30.02,ESE,111,12.0,14.0,-999,-99.99,,,-99.99,,2013-04-03 01:04:00,
2013-04-02 20:13:00,68.0,-99.9,30.02,ESE,106,13.0,14.0,-999,-99.99,,,-99.99,,2013-04-03 01:13:00,
2013-04-02 20:23:00,68.0,-99.9,30.02,ESE,109,13.0,14.0,-999,-99.99,,,-99.99,,2013-04-03 01:23:00,
2013-04-02 20:34:00,68.0,-99.9,30.02,ESE,106,12.0,13.0,-999,-99.99,,,-99.99,,2013-04-03 01:34:00,
2013-04-02 20:43:00,68.0,-99.9,30.03,ESE,113,12.0,14.0,-999,-99.99,,,-99.99,,2013-04-03 01:43:00,
2013-04-02 20:54:00,68.0,-99.9,30.03,ESE,115,14.0,15.0,-999,-99.99,,,-99.99,,2013-04-03 01:54:00,
2013-04-02 21:04:00,68.0,-99.9,30.04,ESE,115,13.0,13.0,-999,-99.99,,,-99.99,,2013-04-03 02:04:00,
2013-04-02 21:14:00,68.0,-99.9,30.04,ESE,112,11.0,13.0,-999,-99.99,,,-99.99,,2013-04-03 02:14:00,
2013-04-02 21:25:00,68.0,-99.9,30.04,ESE,119,12.0,13.0,-999,-99.99,,,-99.99,,2013-04-03 02:25:00,
2013-04-02 21:34:00,68.0,-99.9,30.04,ESE,119,12.0,13.0,-999,-99.99,,,-99.99,,2013-04-03 02:34:00,
2013-04-02 21:44:00,68.0,-99.9,30.04,ESE,115,12.0,14.0,-999,-99.99,,,-99.99,,2013-04-03 02:44:00,
2013-04-02 21:53:00,68.0,-99.9,30.04,ESE,123,12.0,13.0,-999,-99.99,,,-99.99,,2013-04-03 02:53:00,
2013-04-02 22:07:00,68.0,-99.9,30.03,ESE,121,13.0,15.0,-999,-99.99,,,-99.99,,2013-04-03 03:07:00,
2013-04-02 22:14:00,68.0,-99.9,30.04,ESE,122,13.0,15.0,-999,-99.99,,,-99.99,,2013-04-03 03:14:00,
2013-04-02 22:23:00,68.0,-99.9,30.03,ESE,118,14.0,16.0,-999,-99.99,,,-99.99,,2013-04-03 03:23:00,
2013-04-02 22:38:00,68.0,-99.9,30.02,ESE,112,13.0,15.0,-999,-99.99,,,-99.99,,2013-04-03 03:38:00,
2013-04-02 22:44:00,68.0,-99.9,30.03,ESE,112,14.0,15.0,-999,-99.99,,,-99.99,,2013-04-03 03:44:00,
2013-04-02 22:54:00,68.0,-99.9,30.03,ESE,115,12.0,14.0,-999,-99.99,,,-99.99,,2013-04-03 03:54:00,
2013-04-02 23:03:00,68.0,-99.9,30.03,SE,124,12.0,14.0,-999,-99.99,,,-99.99,,2013-04-03 04:03:00,
2013-04-02 23:13:00,68.0,-99.9,30.04,SE,124,11.0,12.0,-999,-99.99,,,-99.99,,2013-04-03 04:13:00,
2013-04-02 23:23:00,68.0,-99.9,30.03,SE,125,12.0,13.0,-999,-99.99,,,-99.99,,2013-04-03 04:23:00,
2013-04-02 23:33:00,68.0,-99.9,30.02,ESE,121,11.0,13.0,-999,-99.99,,,-99.99,,2013-04-03 04:33:00,
2013-04-02 23:43:00,68.0,-99.9,30.02,SE,124,11.0,13.0,-999,-99.99,,,-99.99,,2013-04-03 04:43:00,
2013-04-02 23:53:00,68.0,-99.9,30.01,SE,135,14.0,15.0,-999,-99.99,,,-99.99,,2013-04-03 04:53:00,